Galicia — ECEC — position and weather

sailwx.info

Track history (hours):
 
Tides and Currents Weather Stations Pressure Air Temp Water Temp Dewpoint Dewpoint Depression Visibility Wind Speed Wind Dir Waves Ship Positions

Galicia

Last reported at 2014-Sep-30 05:26 UTC. Time now 2014-Sep-30 11:49 UTC.
Position N 39°43' E 001°05'.

Length 149 m; draft 5.4 m.

Type: Cargo ship. MMSI: 224548000.

Date/timePositionNaut miles runAvg speedWind from/ knotsBaromVisibWave heightAir tempDewpointWater temp
2014-Sep-30 05:26N 39°43' E 001°05'1110.6
2014-Sep-30 04:25N 39°52' E 001°12'910.5
2014-Sep-30 03:33N 40°00' E 001°17'1110.5
2014-Sep-30 02:33N 40°10' E 001°23'1010.3
2014-Sep-30 01:33N 40°18' E 001°30'1010.2
2014-Sep-30 00:33N 40°27' E 001°37'1010.3
2014-Sep-29 23:33N 40°36' E 001°43'1010.2
2014-Sep-29 22:33N 40°46' E 001°49'1010.2
2014-Sep-29 21:33N 40°55' E 001°55'1010.3
2014-Sep-29 20:33N 41°04' E 002°01'1110.5
2014-Sep-29 19:33N 41°13' E 002°08'7 2.0
2014-Sep-29 16:14N 41°20' E 002°09'0 0.0
2014-Sep-29 15:33N 41°20' E 002°09'0 0.0
2014-Sep-29 13:26N 41°20' E 002°09'0 0.0
2014-Sep-29 11:26N 41°20' E 002°09'0 0.0
2014-Sep-29 09:23N 41°20' E 002°09'5 5.6
2014-Sep-29 08:33N 41°16' E 002°11'9 9.2
2014-Sep-29 07:33N 41°07' E 002°09'9 8.8
2014-Sep-29 06:33N 40°60' E 002°02'10 9.7
2014-Sep-29 05:33N 40°51' E 001°56'10 9.6
2014-Sep-29 04:33N 40°42' E 001°50'10 9.6
2014-Sep-29 03:33N 40°34' E 001°44'7 7.0
2014-Sep-29 02:33N 40°28' E 001°40'10 9.5
2014-Sep-29 01:33N 40°19' E 001°34'9 9.4
2014-Sep-29 00:33N 40°11' E 001°28'9 9.4
2014-Sep-28 23:33N 40°03' E 001°23'10 9.5
2014-Sep-28 22:33N 39°54' E 001°17'150 9.3
2014-Sep-28 06:26N 37°45' W 000°21'1112.1
2014-Sep-28 05:33N 37°36' W 000°28'1413.6
2014-Sep-28 04:33N 37°26' W 000°41'1413.6
2014-Sep-28 03:33N 37°17' W 000°54'  
Track history (hours):
 
Tides and Currents Weather Stations Pressure Air Temp Water Temp Dewpoint Dewpoint Depression Visibility Wind Speed Wind Dir Waves Ship Positions

Galicia

Last reported at 2014-Sep-30 05:26 UTC. Time now 2014-Sep-30 11:49 UTC.
Position N 39°43' E 001°05'.

Length 149 m; draft 5.4 m.

Type: Cargo ship. MMSI: 224548000.

Date/timePositionNaut miles runAvg speedWind from/ knotsBaromVisibWave heightAir tempDewpointWater temp
2014-Sep-30 05:26N 39°43' E 001°05'1110.6
2014-Sep-30 04:25N 39°52' E 001°12'910.5
2014-Sep-30 03:33N 40°00' E 001°17'1110.5
2014-Sep-30 02:33N 40°10' E 001°23'1010.3
2014-Sep-30 01:33N 40°18' E 001°30'1010.2
2014-Sep-30 00:33N 40°27' E 001°37'1010.3
2014-Sep-29 23:33N 40°36' E 001°43'1010.2
2014-Sep-29 22:33N 40°46' E 001°49'1010.2
2014-Sep-29 21:33N 40°55' E 001°55'1010.3
2014-Sep-29 20:33N 41°04' E 002°01'1110.5
2014-Sep-29 19:33N 41°13' E 002°08'7 2.0
2014-Sep-29 16:14N 41°20' E 002°09'0 0.0
2014-Sep-29 15:33N 41°20' E 002°09'0 0.0
2014-Sep-29 13:26N 41°20' E 002°09'0 0.0
2014-Sep-29 11:26N 41°20' E 002°09'0 0.0
2014-Sep-29 09:23N 41°20' E 002°09'5 5.6
2014-Sep-29 08:33N 41°16' E 002°11'9 9.2
2014-Sep-29 07:33N 41°07' E 002°09'9 8.8
2014-Sep-29 06:33N 40°60' E 002°02'10 9.7
2014-Sep-29 05:33N 40°51' E 001°56'10 9.6
2014-Sep-29 04:33N 40°42' E 001°50'10 9.6
2014-Sep-29 03:33N 40°34' E 001°44'7 7.0
2014-Sep-29 02:33N 40°28' E 001°40'10 9.5
2014-Sep-29 01:33N 40°19' E 001°34'9 9.4
2014-Sep-29 00:33N 40°11' E 001°28'9 9.4
2014-Sep-28 23:33N 40°03' E 001°23'10 9.5
2014-Sep-28 22:33N 39°54' E 001°17'150 9.3
2014-Sep-28 06:26N 37°45' W 000°21'1112.1
2014-Sep-28 05:33N 37°36' W 000°28'1413.6
2014-Sep-28 04:33N 37°26' W 000°41'1413.6
2014-Sep-28 03:33N 37°17' W 000°54'  

Dump ship's entire track history